sensor_id;sensor_type;location;lat;lon;timestamp;P1;durP1;ratioP1;P2;durP2;ratioP2
75044;SDS011;63614;56.026;35.960;2022-11-21T00:00:42;16.58;;;9.77;;
75044;SDS011;63614;56.026;35.960;2022-11-21T00:03:10;17.95;;;10.20;;
75044;SDS011;63614;56.026;35.960;2022-11-21T00:05:40;20.50;;;10.27;;
75044;SDS011;63614;56.026;35.960;2022-11-21T00:08:07;18.50;;;9.75;;
75044;SDS011;63614;56.026;35.960;2022-11-21T00:10:34;19.42;;;10.60;;
75044;SDS011;63614;56.026;35.960;2022-11-21T00:13:01;18.10;;;10.68;;
75044;SDS011;63614;56.026;35.960;2022-11-21T00:15:27;20.83;;;10.65;;
75044;SDS011;63614;56.026;35.960;2022-11-21T00:17:53;18.23;;;11.20;;
75044;SDS011;63614;56.026;35.960;2022-11-21T00:20:19;20.65;;;10.93;;
75044;SDS011;63614;56.026;35.960;2022-11-21T00:22:46;19.95;;;11.20;;
75044;SDS011;63614;56.026;35.960;2022-11-21T00:25:13;18.00;;;10.50;;
75044;SDS011;63614;56.026;35.960;2022-11-21T00:27:39;22.48;;;11.15;;
75044;SDS011;63614;56.026;35.960;2022-11-21T00:30:06;23.52;;;11.00;;
75044;SDS011;63614;56.026;35.960;2022-11-21T00:32:33;20.40;;;10.75;;
75044;SDS011;63614;56.026;35.960;2022-11-21T00:34:59;18.63;;;11.20;;
75044;SDS011;63614;56.026;35.960;2022-11-21T00:37:25;20.52;;;12.05;;
75044;SDS011;63614;56.026;35.960;2022-11-21T00:39:50;20.08;;;10.23;;
75044;SDS011;63614;56.026;35.960;2022-11-21T00:42:16;19.05;;;10.40;;
75044;SDS011;63614;56.026;35.960;2022-11-21T00:44:42;18.17;;;10.57;;
75044;SDS011;63614;56.026;35.960;2022-11-21T00:47:08;18.52;;;10.98;;
75044;SDS011;63614;56.026;35.960;2022-11-21T00:49:34;19.30;;;10.25;;
75044;SDS011;63614;56.026;35.960;2022-11-21T00:52:00;21.65;;;11.25;;
75044;SDS011;63614;56.026;35.960;2022-11-21T00:54:26;17.48;;;10.20;;
75044;SDS011;63614;56.026;35.960;2022-11-21T00:56:51;21.27;;;11.07;;
75044;SDS011;63614;56.026;35.960;2022-11-21T00:59:17;17.05;;;10.50;;
75044;SDS011;63614;56.026;35.960;2022-11-21T01:01:43;18.40;;;9.50;;
75044;SDS011;63614;56.026;35.960;2022-11-21T01:04:09;21.55;;;10.93;;
75044;SDS011;63614;56.026;35.960;2022-11-21T01:06:38;18.80;;;11.38;;
75044;SDS011;63614;56.026;35.960;2022-11-21T01:09:04;18.42;;;10.57;;
75044;SDS011;63614;56.026;35.960;2022-11-21T01:11:30;18.35;;;10.73;;
75044;SDS011;63614;56.026;35.960;2022-11-21T01:13:56;21.42;;;10.80;;
75044;SDS011;63614;56.026;35.960;2022-11-21T01:16:23;18.65;;;9.68;;
75044;SDS011;63614;56.026;35.960;2022-11-21T01:18:51;15.55;;;10.07;;
75044;SDS011;63614;56.026;35.960;2022-11-21T01:21:27;17.13;;;10.15;;
75044;SDS011;63614;56.026;35.960;2022-11-21T01:23:55;16.80;;;9.55;;
75044;SDS011;63614;56.026;35.960;2022-11-21T01:26:24;16.73;;;10.02;;
75044;SDS011;63614;56.026;35.960;2022-11-21T01:28:52;16.67;;;9.75;;
75044;SDS011;63614;56.026;35.960;2022-11-21T01:31:20;18.85;;;10.30;;
75044;SDS011;63614;56.026;35.960;2022-11-21T01:33:48;16.77;;;10.10;;
75044;SDS011;63614;56.026;35.960;2022-11-21T01:36:15;16.55;;;10.57;;
75044;SDS011;63614;56.026;35.960;2022-11-21T01:38:44;14.48;;;8.85;;
75044;SDS011;63614;56.026;35.960;2022-11-21T01:41:12;23.27;;;11.10;;
75044;SDS011;63614;56.026;35.960;2022-11-21T01:43:39;19.08;;;9.80;;
75044;SDS011;63614;56.026;35.960;2022-11-21T01:51:56;17.33;;;10.00;;
75044;SDS011;63614;56.026;35.960;2022-11-21T01:59:15;18.15;;;9.68;;
75044;SDS011;63614;56.026;35.960;2022-11-21T02:01:47;19.23;;;9.65;;
75044;SDS011;63614;56.026;35.960;2022-11-21T02:04:16;15.85;;;9.77;;
75044;SDS011;63614;56.026;35.960;2022-11-21T02:06:42;16.60;;;9.27;;
75044;SDS011;63614;56.026;35.960;2022-11-21T02:09:08;18.05;;;10.75;;
75044;SDS011;63614;56.026;35.960;2022-11-21T02:11:43;18.90;;;9.77;;
75044;SDS011;63614;56.026;35.960;2022-11-21T02:14:13;16.20;;;8.40;;
75044;SDS011;63614;56.026;35.960;2022-11-21T02:16:40;18.13;;;10.57;;
75044;SDS011;63614;56.026;35.960;2022-11-21T02:19:08;20.50;;;10.07;;
75044;SDS011;63614;56.026;35.960;2022-11-21T02:21:42;17.63;;;9.45;;
75044;SDS011;63614;56.026;35.960;2022-11-21T02:24:28;18.40;;;9.73;;
75044;SDS011;63614;56.026;35.960;2022-11-21T02:26:58;17.60;;;9.75;;
75044;SDS011;63614;56.026;35.960;2022-11-21T02:29:25;18.92;;;10.07;;
75044;SDS011;63614;56.026;35.960;2022-11-21T02:31:51;17.77;;;9.07;;
75044;SDS011;63614;56.026;35.960;2022-11-21T02:34:18;16.15;;;9.20;;
75044;SDS011;63614;56.026;35.960;2022-11-21T02:36:47;19.42;;;10.30;;
75044;SDS011;63614;56.026;35.960;2022-11-21T02:39:22;19.95;;;10.65;;
75044;SDS011;63614;56.026;35.960;2022-11-21T02:47:16;17.63;;;10.07;;
75044;SDS011;63614;56.026;35.960;2022-11-21T02:49:50;17.25;;;9.95;;
75044;SDS011;63614;56.026;35.960;2022-11-21T02:52:23;18.65;;;10.15;;
75044;SDS011;63614;56.026;35.960;2022-11-21T02:54:49;17.50;;;10.23;;
75044;SDS011;63614;56.026;35.960;2022-11-21T02:57:15;16.25;;;10.20;;
75044;SDS011;63614;56.026;35.960;2022-11-21T02:59:41;17.52;;;10.07;;
75044;SDS011;63614;56.026;35.960;2022-11-21T03:02:07;19.75;;;10.85;;
75044;SDS011;63614;56.026;35.960;2022-11-21T03:04:33;15.90;;;9.85;;
75044;SDS011;63614;56.026;35.960;2022-11-21T03:06:59;18.33;;;10.30;;
75044;SDS011;63614;56.026;35.960;2022-11-21T03:09:25;18.20;;;9.60;;
75044;SDS011;63614;56.026;35.960;2022-11-21T03:11:50;17.23;;;10.50;;
75044;SDS011;63614;56.026;35.960;2022-11-21T03:14:16;16.55;;;10.05;;
75044;SDS011;63614;56.026;35.960;2022-11-21T03:16:42;19.45;;;11.73;;
75044;SDS011;63614;56.026;35.960;2022-11-21T03:19:08;18.15;;;10.75;;
75044;SDS011;63614;56.026;35.960;2022-11-21T03:21:36;20.20;;;11.10;;
75044;SDS011;63614;56.026;35.960;2022-11-21T03:24:02;22.25;;;11.35;;
75044;SDS011;63614;56.026;35.960;2022-11-21T03:26:28;18.27;;;10.95;;
75044;SDS011;63614;56.026;35.960;2022-11-21T03:28:54;19.77;;;10.48;;
75044;SDS011;63614;56.026;35.960;2022-11-21T03:31:20;20.95;;;10.88;;
75044;SDS011;63614;56.026;35.960;2022-11-21T03:33:45;19.38;;;12.00;;
75044;SDS011;63614;56.026;35.960;2022-11-21T03:36:12;20.80;;;11.50;;
75044;SDS011;63614;56.026;35.960;2022-11-21T03:38:38;20.30;;;11.45;;
75044;SDS011;63614;56.026;35.960;2022-11-21T03:41:05;22.63;;;12.40;;
75044;SDS011;63614;56.026;35.960;2022-11-21T03:43:51;21.48;;;11.98;;
75044;SDS011;63614;56.026;35.960;2022-11-21T03:46:17;20.85;;;11.00;;
75044;SDS011;63614;56.026;35.960;2022-11-21T03:48:43;19.95;;;10.60;;
75044;SDS011;63614;56.026;35.960;2022-11-21T03:51:08;19.20;;;11.55;;
75044;SDS011;63614;56.026;35.960;2022-11-21T03:53:34;20.83;;;11.77;;
75044;SDS011;63614;56.026;35.960;2022-11-21T03:56:00;23.42;;;12.02;;
75044;SDS011;63614;56.026;35.960;2022-11-21T03:58:26;18.50;;;10.65;;
75044;SDS011;63614;56.026;35.960;2022-11-21T04:00:52;20.23;;;11.18;;
75044;SDS011;63614;56.026;35.960;2022-11-21T04:03:20;20.30;;;10.77;;
75044;SDS011;63614;56.026;35.960;2022-11-21T04:05:46;14.43;;;8.65;;
75044;SDS011;63614;56.026;35.960;2022-11-21T04:08:12;18.02;;;8.15;;
75044;SDS011;63614;56.026;35.960;2022-11-21T04:10:38;18.17;;;10.90;;
75044;SDS011;63614;56.026;35.960;2022-11-21T04:13:04;20.42;;;11.20;;
75044;SDS011;63614;56.026;35.960;2022-11-21T04:15:30;14.63;;;9.00;;
75044;SDS011;63614;56.026;35.960;2022-11-21T04:17:56;18.85;;;10.57;;
75044;SDS011;63614;56.026;35.960;2022-11-21T04:20:21;19.75;;;9.77;;
75044;SDS011;63614;56.026;35.960;2022-11-21T04:22:47;15.90;;;9.93;;
75044;SDS011;63614;56.026;35.960;2022-11-21T04:25:13;20.20;;;11.20;;
75044;SDS011;63614;56.026;35.960;2022-11-21T04:27:39;16.75;;;9.77;;
75044;SDS011;63614;56.026;35.960;2022-11-21T04:30:05;14.68;;;8.82;;
75044;SDS011;63614;56.026;35.960;2022-11-21T04:32:34;19.08;;;11.48;;
75044;SDS011;63614;56.026;35.960;2022-11-21T04:34:59;18.60;;;9.55;;
75044;SDS011;63614;56.026;35.960;2022-11-21T04:37:25;19.55;;;10.55;;
75044;SDS011;63614;56.026;35.960;2022-11-21T04:39:51;19.63;;;10.25;;
75044;SDS011;63614;56.026;35.960;2022-11-21T04:42:17;21.58;;;11.30;;
75044;SDS011;63614;56.026;35.960;2022-11-21T04:44:43;20.05;;;10.57;;
75044;SDS011;63614;56.026;35.960;2022-11-21T04:47:08;15.95;;;9.02;;
75044;SDS011;63614;56.026;35.960;2022-11-21T04:49:37;15.43;;;9.57;;
75044;SDS011;63614;56.026;35.960;2022-11-21T04:52:03;23.05;;;11.20;;
75044;SDS011;63614;56.026;35.960;2022-11-21T04:54:29;16.73;;;9.32;;
75044;SDS011;63614;56.026;35.960;2022-11-21T04:56:55;20.60;;;9.98;;
75044;SDS011;63614;56.026;35.960;2022-11-21T04:59:21;18.27;;;10.55;;
75044;SDS011;63614;56.026;35.960;2022-11-21T05:01:47;19.35;;;11.10;;
75044;SDS011;63614;56.026;35.960;2022-11-21T05:04:12;20.27;;;11.90;;
75044;SDS011;63614;56.026;35.960;2022-11-21T05:06:38;18.02;;;10.95;;
75044;SDS011;63614;56.026;35.960;2022-11-21T05:09:04;20.20;;;11.40;;
75044;SDS011;63614;56.026;35.960;2022-11-21T05:11:30;20.05;;;11.30;;
75044;SDS011;63614;56.026;35.960;2022-11-21T05:14:14;15.43;;;8.20;;
75044;SDS011;63614;56.026;35.960;2022-11-21T05:16:40;17.92;;;10.27;;
75044;SDS011;63614;56.026;35.960;2022-11-21T05:19:07;18.23;;;9.63;;
75044;SDS011;63614;56.026;35.960;2022-11-21T05:21:33;15.75;;;9.65;;
75044;SDS011;63614;56.026;35.960;2022-11-21T05:23:59;14.85;;;8.65;;
75044;SDS011;63614;56.026;35.960;2022-11-21T05:26:25;20.50;;;10.50;;
75044;SDS011;63614;56.026;35.960;2022-11-21T05:28:51;16.50;;;9.68;;
75044;SDS011;63614;56.026;35.960;2022-11-21T05:31:17;19.40;;;9.27;;
75044;SDS011;63614;56.026;35.960;2022-11-21T05:33:43;17.38;;;8.70;;
75044;SDS011;63614;56.026;35.960;2022-11-21T05:36:08;18.73;;;10.07;;
75044;SDS011;63614;56.026;35.960;2022-11-21T05:38:34;19.20;;;9.90;;
75044;SDS011;63614;56.026;35.960;2022-11-21T05:41:00;19.55;;;10.25;;
75044;SDS011;63614;56.026;35.960;2022-11-21T05:43:26;16.58;;;9.20;;
75044;SDS011;63614;56.026;35.960;2022-11-21T05:46:13;18.23;;;9.68;;
75044;SDS011;63614;56.026;35.960;2022-11-21T05:48:45;19.33;;;10.23;;
75044;SDS011;63614;56.026;35.960;2022-11-21T05:51:12;18.08;;;10.80;;
75044;SDS011;63614;56.026;35.960;2022-11-21T05:53:39;17.80;;;9.03;;
75044;SDS011;63614;56.026;35.960;2022-11-21T05:56:06;22.00;;;10.25;;
75044;SDS011;63614;56.026;35.960;2022-11-21T05:58:33;14.95;;;9.43;;
75044;SDS011;63614;56.026;35.960;2022-11-21T06:01:00;16.90;;;9.98;;
75044;SDS011;63614;56.026;35.960;2022-11-21T06:03:27;18.83;;;9.75;;
75044;SDS011;63614;56.026;35.960;2022-11-21T06:05:59;14.93;;;8.85;;
75044;SDS011;63614;56.026;35.960;2022-11-21T06:08:36;19.65;;;10.48;;
75044;SDS011;63614;56.026;35.960;2022-11-21T06:11:04;18.58;;;9.52;;
75044;SDS011;63614;56.026;35.960;2022-11-21T06:13:31;16.35;;;9.43;;
75044;SDS011;63614;56.026;35.960;2022-11-21T06:18:31;16.85;;;9.85;;
75044;SDS011;63614;56.026;35.960;2022-11-21T06:21:08;15.90;;;9.50;;
75044;SDS011;63614;56.026;35.960;2022-11-21T06:23:37;16.10;;;9.27;;
75044;SDS011;63614;56.026;35.960;2022-11-21T06:26:04;19.05;;;10.65;;
75044;SDS011;63614;56.026;35.960;2022-11-21T06:28:35;15.73;;;8.40;;
75044;SDS011;63614;56.026;35.960;2022-11-21T06:31:06;14.63;;;8.50;;
75044;SDS011;63614;56.026;35.960;2022-11-21T06:33:35;14.77;;;9.68;;
75044;SDS011;63614;56.026;35.960;2022-11-21T06:36:05;17.60;;;9.30;;
75044;SDS011;63614;56.026;35.960;2022-11-21T06:38:34;20.10;;;9.45;;
75044;SDS011;63614;56.026;35.960;2022-11-21T06:41:07;16.73;;;9.55;;
75044;SDS011;63614;56.026;35.960;2022-11-21T06:43:36;14.77;;;9.63;;
75044;SDS011;63614;56.026;35.960;2022-11-21T06:46:02;16.92;;;9.80;;
75044;SDS011;63614;56.026;35.960;2022-11-21T06:48:32;16.85;;;9.07;;
75044;SDS011;63614;56.026;35.960;2022-11-21T06:51:03;16.33;;;9.63;;
75044;SDS011;63614;56.026;35.960;2022-11-21T06:56:25;17.08;;;8.55;;
75044;SDS011;63614;56.026;35.960;2022-11-21T06:58:52;11.73;;;7.55;;
75044;SDS011;63614;56.026;35.960;2022-11-21T07:01:19;16.58;;;9.05;;
75044;SDS011;63614;56.026;35.960;2022-11-21T07:03:45;14.00;;;7.85;;
75044;SDS011;63614;56.026;35.960;2022-11-21T07:06:11;16.05;;;8.75;;
75044;SDS011;63614;56.026;35.960;2022-11-21T07:08:39;17.20;;;8.50;;
75044;SDS011;63614;56.026;35.960;2022-11-21T07:11:06;15.60;;;8.73;;
75044;SDS011;63614;56.026;35.960;2022-11-21T07:13:33;14.85;;;7.55;;
75044;SDS011;63614;56.026;35.960;2022-11-21T07:16:01;11.90;;;7.80;;
75044;SDS011;63614;56.026;35.960;2022-11-21T07:18:34;14.98;;;8.07;;
75044;SDS011;63614;56.026;35.960;2022-11-21T07:21:04;13.23;;;7.87;;
75044;SDS011;63614;56.026;35.960;2022-11-21T07:23:31;15.70;;;9.00;;
75044;SDS011;63614;56.026;35.960;2022-11-21T07:26:01;13.35;;;7.43;;
75044;SDS011;63614;56.026;35.960;2022-11-21T07:28:32;13.48;;;7.88;;
75044;SDS011;63614;56.026;35.960;2022-11-21T07:30:59;12.85;;;8.20;;
75044;SDS011;63614;56.026;35.960;2022-11-21T07:33:26;17.50;;;10.10;;
75044;SDS011;63614;56.026;35.960;2022-11-21T07:35:54;16.05;;;8.50;;
75044;SDS011;63614;56.026;35.960;2022-11-21T07:38:20;15.65;;;8.75;;
75044;SDS011;63614;56.026;35.960;2022-11-21T07:40:46;16.63;;;8.75;;
75044;SDS011;63614;56.026;35.960;2022-11-21T07:43:12;13.07;;;8.25;;
75044;SDS011;63614;56.026;35.960;2022-11-21T07:45:38;14.95;;;8.43;;
75044;SDS011;63614;56.026;35.960;2022-11-21T07:48:04;14.55;;;7.10;;
75044;SDS011;63614;56.026;35.960;2022-11-21T07:53:02;13.68;;;7.35;;
75044;SDS011;63614;56.026;35.960;2022-11-21T07:55:30;11.57;;;6.32;;
75044;SDS011;63614;56.026;35.960;2022-11-21T07:58:00;13.07;;;7.30;;
75044;SDS011;63614;56.026;35.960;2022-11-21T08:00:28;11.30;;;7.40;;
75044;SDS011;63614;56.026;35.960;2022-11-21T08:05:21;10.80;;;6.15;;
75044;SDS011;63614;56.026;35.960;2022-11-21T08:07:47;11.57;;;6.55;;
75044;SDS011;63614;56.026;35.960;2022-11-21T08:10:13;11.90;;;6.43;;
75044;SDS011;63614;56.026;35.960;2022-11-21T08:12:40;10.30;;;6.40;;
75044;SDS011;63614;56.026;35.960;2022-11-21T08:15:06;13.65;;;6.88;;
75044;SDS011;63614;56.026;35.960;2022-11-21T08:17:33;11.80;;;6.73;;
75044;SDS011;63614;56.026;35.960;2022-11-21T08:19:59;12.68;;;6.70;;
75044;SDS011;63614;56.026;35.960;2022-11-21T08:22:25;8.90;;;5.53;;
75044;SDS011;63614;56.026;35.960;2022-11-21T08:24:51;10.38;;;6.50;;
75044;SDS011;63614;56.026;35.960;2022-11-21T08:27:19;13.47;;;7.27;;
75044;SDS011;63614;56.026;35.960;2022-11-21T08:29:45;14.50;;;7.40;;
75044;SDS011;63614;56.026;35.960;2022-11-21T08:32:12;15.35;;;8.60;;
75044;SDS011;63614;56.026;35.960;2022-11-21T08:34:38;14.68;;;8.35;;
75044;SDS011;63614;56.026;35.960;2022-11-21T08:37:04;11.55;;;6.45;;
75044;SDS011;63614;56.026;35.960;2022-11-21T08:39:30;13.43;;;7.20;;
75044;SDS011;63614;56.026;35.960;2022-11-21T08:41:56;15.48;;;8.10;;
75044;SDS011;63614;56.026;35.960;2022-11-21T08:44:33;12.38;;;6.85;;
75044;SDS011;63614;56.026;35.960;2022-11-21T08:47:00;15.07;;;7.63;;
75044;SDS011;63614;56.026;35.960;2022-11-21T08:49:26;17.70;;;8.75;;
75044;SDS011;63614;56.026;35.960;2022-11-21T08:51:52;17.40;;;8.30;;
75044;SDS011;63614;56.026;35.960;2022-11-21T08:54:20;14.82;;;8.68;;
75044;SDS011;63614;56.026;35.960;2022-11-21T08:56:47;21.88;;;9.55;;
75044;SDS011;63614;56.026;35.960;2022-11-21T08:59:14;13.98;;;8.02;;
75044;SDS011;63614;56.026;35.960;2022-11-21T09:01:41;11.20;;;6.88;;
75044;SDS011;63614;56.026;35.960;2022-11-21T09:04:06;13.45;;;7.15;;
75044;SDS011;63614;56.026;35.960;2022-11-21T09:06:33;13.10;;;6.35;;
75044;SDS011;63614;56.026;35.960;2022-11-21T09:09:00;12.27;;;7.00;;
75044;SDS011;63614;56.026;35.960;2022-11-21T09:11:26;15.27;;;8.07;;
75044;SDS011;63614;56.026;35.960;2022-11-21T09:13:52;9.88;;;5.60;;
75044;SDS011;63614;56.026;35.960;2022-11-21T09:16:37;11.45;;;6.55;;
75044;SDS011;63614;56.026;35.960;2022-11-21T09:19:22;10.10;;;5.80;;
75044;SDS011;63614;56.026;35.960;2022-11-21T09:21:48;10.63;;;6.10;;
75044;SDS011;63614;56.026;35.960;2022-11-21T09:24:15;11.10;;;6.23;;
75044;SDS011;63614;56.026;35.960;2022-11-21T09:26:41;8.10;;;5.15;;
75044;SDS011;63614;56.026;35.960;2022-11-21T09:29:07;9.65;;;5.90;;
75044;SDS011;63614;56.026;35.960;2022-11-21T09:31:36;9.90;;;5.75;;
75044;SDS011;63614;56.026;35.960;2022-11-21T09:34:02;10.00;;;5.87;;
75044;SDS011;63614;56.026;35.960;2022-11-21T09:36:28;9.82;;;5.43;;
75044;SDS011;63614;56.026;35.960;2022-11-21T09:38:54;10.63;;;5.45;;
75044;SDS011;63614;56.026;35.960;2022-11-21T09:49:44;7.75;;;4.47;;
75044;SDS011;63614;56.026;35.960;2022-11-21T09:52:16;13.52;;;7.72;;
75044;SDS011;63614;56.026;35.960;2022-11-21T09:54:51;11.27;;;6.55;;
75044;SDS011;63614;56.026;35.960;2022-11-21T09:57:23;9.77;;;5.38;;
75044;SDS011;63614;56.026;35.960;2022-11-21T09:59:50;9.93;;;5.63;;
75044;SDS011;63614;56.026;35.960;2022-11-21T10:02:18;8.70;;;5.10;;
75044;SDS011;63614;56.026;35.960;2022-11-21T10:04:46;10.18;;;5.75;;
75044;SDS011;63614;56.026;35.960;2022-11-21T10:07:23;10.00;;;5.65;;
75044;SDS011;63614;56.026;35.960;2022-11-21T10:13:12;9.23;;;4.97;;
75044;SDS011;63614;56.026;35.960;2022-11-21T10:21:24;11.00;;;5.50;;
75044;SDS011;63614;56.026;35.960;2022-11-21T10:27:13;10.80;;;5.15;;
75044;SDS011;63614;56.026;35.960;2022-11-21T10:29:51;11.55;;;5.50;;
75044;SDS011;63614;56.026;35.960;2022-11-21T10:32:21;8.88;;;4.90;;
75044;SDS011;63614;56.026;35.960;2022-11-21T10:34:50;11.18;;;6.30;;
75044;SDS011;63614;56.026;35.960;2022-11-21T10:37:30;12.05;;;5.32;;
75044;SDS011;63614;56.026;35.960;2022-11-21T10:40:19;13.80;;;6.43;;
75044;SDS011;63614;56.026;35.960;2022-11-21T10:45:57;8.85;;;5.38;;
75044;SDS011;63614;56.026;35.960;2022-11-21T10:48:23;18.05;;;7.18;;
75044;SDS011;63614;56.026;35.960;2022-11-21T10:53:24;15.95;;;7.80;;
75044;SDS011;63614;56.026;35.960;2022-11-21T10:56:13;10.80;;;5.82;;
75044;SDS011;63614;56.026;35.960;2022-11-21T10:58:44;12.75;;;5.68;;
75044;SDS011;63614;56.026;35.960;2022-11-21T11:01:21;16.35;;;5.30;;
75044;SDS011;63614;56.026;35.960;2022-11-21T11:06:38;12.02;;;6.57;;
75044;SDS011;63614;56.026;35.960;2022-11-21T11:09:05;10.45;;;5.85;;
75044;SDS011;63614;56.026;35.960;2022-11-21T11:11:46;10.10;;;5.88;;
75044;SDS011;63614;56.026;35.960;2022-11-21T11:14:12;8.80;;;5.30;;
75044;SDS011;63614;56.026;35.960;2022-11-21T11:16:42;9.93;;;5.63;;
75044;SDS011;63614;56.026;35.960;2022-11-21T11:19:15;8.70;;;4.95;;
75044;SDS011;63614;56.026;35.960;2022-11-21T11:21:47;10.68;;;5.32;;
75044;SDS011;63614;56.026;35.960;2022-11-21T11:26:50;10.80;;;5.70;;
75044;SDS011;63614;56.026;35.960;2022-11-21T11:29:23;15.10;;;5.97;;
75044;SDS011;63614;56.026;35.960;2022-11-21T11:32:01;10.32;;;5.57;;
75044;SDS011;63614;56.026;35.960;2022-11-21T11:48:36;12.10;;;6.30;;
75044;SDS011;63614;56.026;35.960;2022-11-21T11:51:08;20.20;;;11.73;;
75044;SDS011;63614;56.026;35.960;2022-11-21T11:53:50;16.55;;;7.68;;
75044;SDS011;63614;56.026;35.960;2022-11-21T11:56:32;13.82;;;6.53;;
75044;SDS011;63614;56.026;35.960;2022-11-21T12:01:36;13.85;;;7.30;;
75044;SDS011;63614;56.026;35.960;2022-11-21T12:04:16;15.13;;;8.00;;
75044;SDS011;63614;56.026;35.960;2022-11-21T12:12:04;13.13;;;5.75;;
75044;SDS011;63614;56.026;35.960;2022-11-21T12:20:29;14.23;;;6.97;;
75044;SDS011;63614;56.026;35.960;2022-11-21T12:23:02;14.48;;;7.90;;
75044;SDS011;63614;56.026;35.960;2022-11-21T12:25:30;15.90;;;9.30;;
75044;SDS011;63614;56.026;35.960;2022-11-21T12:28:01;15.75;;;7.20;;
75044;SDS011;63614;56.026;35.960;2022-11-21T12:30:45;14.70;;;7.95;;
75044;SDS011;63614;56.026;35.960;2022-11-21T12:33:19;17.33;;;7.30;;
75044;SDS011;63614;56.026;35.960;2022-11-21T12:41:14;15.52;;;8.30;;
75044;SDS011;63614;56.026;35.960;2022-11-21T12:51:22;24.70;;;10.73;;
75044;SDS011;63614;56.026;35.960;2022-11-21T13:04:37;26.63;;;11.55;;
75044;SDS011;63614;56.026;35.960;2022-11-21T13:07:05;28.73;;;14.60;;
75044;SDS011;63614;56.026;35.960;2022-11-21T13:09:36;24.88;;;11.73;;
75044;SDS011;63614;56.026;35.960;2022-11-21T13:12:07;22.15;;;11.23;;
75044;SDS011;63614;56.026;35.960;2022-11-21T13:15:03;19.48;;;10.95;;
75044;SDS011;63614;56.026;35.960;2022-11-21T13:17:56;19.98;;;9.18;;
75044;SDS011;63614;56.026;35.960;2022-11-21T13:23:02;17.23;;;8.15;;
75044;SDS011;63614;56.026;35.960;2022-11-21T13:28:27;29.67;;;12.45;;
75044;SDS011;63614;56.026;35.960;2022-11-21T13:30:54;24.80;;;10.73;;
75044;SDS011;63614;56.026;35.960;2022-11-21T13:42:02;17.70;;;9.13;;
75044;SDS011;63614;56.026;35.960;2022-11-21T13:46:58;18.75;;;9.10;;
75044;SDS011;63614;56.026;35.960;2022-11-21T13:49:29;16.25;;;8.38;;
75044;SDS011;63614;56.026;35.960;2022-11-21T13:52:33;20.52;;;9.48;;
75044;SDS011;63614;56.026;35.960;2022-11-21T13:55:06;18.77;;;9.32;;
75044;SDS011;63614;56.026;35.960;2022-11-21T13:57:53;17.35;;;8.88;;
75044;SDS011;63614;56.026;35.960;2022-11-21T14:00:29;21.05;;;9.02;;
75044;SDS011;63614;56.026;35.960;2022-11-21T14:09:06;14.55;;;8.23;;
75044;SDS011;63614;56.026;35.960;2022-11-21T14:11:42;16.95;;;9.48;;
75044;SDS011;63614;56.026;35.960;2022-11-21T14:14:22;20.92;;;8.85;;
75044;SDS011;63614;56.026;35.960;2022-11-21T14:16:58;19.83;;;9.55;;
75044;SDS011;63614;56.026;35.960;2022-11-21T14:19:47;17.17;;;7.75;;
75044;SDS011;63614;56.026;35.960;2022-11-21T14:23:00;16.92;;;8.88;;
75044;SDS011;63614;56.026;35.960;2022-11-21T14:25:08;17.67;;;8.68;;
75044;SDS011;63614;56.026;35.960;2022-11-21T14:27:39;15.88;;;8.35;;
75044;SDS011;63614;56.026;35.960;2022-11-21T14:32:55;19.67;;;9.20;;
75044;SDS011;63614;56.026;35.960;2022-11-21T14:35:22;15.55;;;8.43;;
75044;SDS011;63614;56.026;35.960;2022-11-21T14:37:48;22.13;;;9.77;;
75044;SDS011;63614;56.026;35.960;2022-11-21T14:40:19;15.90;;;8.50;;
75044;SDS011;63614;56.026;35.960;2022-11-21T14:42:46;17.10;;;9.27;;
75044;SDS011;63614;56.026;35.960;2022-11-21T14:45:22;17.05;;;8.93;;
75044;SDS011;63614;56.026;35.960;2022-11-21T14:47:49;18.38;;;9.30;;
75044;SDS011;63614;56.026;35.960;2022-11-21T14:50:29;18.65;;;9.00;;
75044;SDS011;63614;56.026;35.960;2022-11-21T14:52:59;23.30;;;11.25;;
75044;SDS011;63614;56.026;35.960;2022-11-21T14:55:27;23.67;;;10.35;;
75044;SDS011;63614;56.026;35.960;2022-11-21T14:57:55;26.23;;;13.73;;
75044;SDS011;63614;56.026;35.960;2022-11-21T15:00:24;20.55;;;10.63;;
75044;SDS011;63614;56.026;35.960;2022-11-21T15:02:53;25.48;;;13.00;;
75044;SDS011;63614;56.026;35.960;2022-11-21T15:05:27;27.05;;;13.27;;
75044;SDS011;63614;56.026;35.960;2022-11-21T15:07:54;28.92;;;14.07;;
75044;SDS011;63614;56.026;35.960;2022-11-21T15:10:22;28.38;;;13.98;;
75044;SDS011;63614;56.026;35.960;2022-11-21T15:12:53;22.52;;;11.82;;
75044;SDS011;63614;56.026;35.960;2022-11-21T15:17:54;23.20;;;11.05;;
75044;SDS011;63614;56.026;35.960;2022-11-21T15:20:23;22.67;;;10.73;;
75044;SDS011;63614;56.026;35.960;2022-11-21T15:22:54;22.88;;;10.90;;
75044;SDS011;63614;56.026;35.960;2022-11-21T15:25:23;21.83;;;10.57;;
75044;SDS011;63614;56.026;35.960;2022-11-21T15:27:51;23.35;;;11.23;;
75044;SDS011;63614;56.026;35.960;2022-11-21T15:30:34;22.45;;;10.43;;
75044;SDS011;63614;56.026;35.960;2022-11-21T15:48:46;20.80;;;10.48;;
75044;SDS011;63614;56.026;35.960;2022-11-21T15:51:18;22.58;;;12.00;;
75044;SDS011;63614;56.026;35.960;2022-11-21T15:53:45;24.90;;;10.57;;
75044;SDS011;63614;56.026;35.960;2022-11-21T15:56:12;19.95;;;11.43;;
75044;SDS011;63614;56.026;35.960;2022-11-21T15:58:39;22.90;;;10.68;;
75044;SDS011;63614;56.026;35.960;2022-11-21T16:01:10;24.05;;;13.07;;
75044;SDS011;63614;56.026;35.960;2022-11-21T16:03:58;26.95;;;13.35;;
75044;SDS011;63614;56.026;35.960;2022-11-21T16:06:26;34.78;;;14.25;;
75044;SDS011;63614;56.026;35.960;2022-11-21T16:08:52;30.88;;;14.52;;
75044;SDS011;63614;56.026;35.960;2022-11-21T16:11:22;22.60;;;9.30;;
75044;SDS011;63614;56.026;35.960;2022-11-21T16:13:50;27.55;;;11.60;;
75044;SDS011;63614;56.026;35.960;2022-11-21T16:16:18;21.90;;;11.02;;
75044;SDS011;63614;56.026;35.960;2022-11-21T16:18:45;23.38;;;12.07;;
75044;SDS011;63614;56.026;35.960;2022-11-21T16:21:11;23.08;;;10.88;;
75044;SDS011;63614;56.026;35.960;2022-11-21T16:23:38;23.80;;;11.27;;
75044;SDS011;63614;56.026;35.960;2022-11-21T16:26:04;21.83;;;11.13;;
75044;SDS011;63614;56.026;35.960;2022-11-21T16:28:32;22.35;;;11.13;;
75044;SDS011;63614;56.026;35.960;2022-11-21T16:30:58;23.38;;;11.30;;
75044;SDS011;63614;56.026;35.960;2022-11-21T16:33:25;23.07;;;10.77;;
75044;SDS011;63614;56.026;35.960;2022-11-21T16:35:51;21.63;;;11.00;;
75044;SDS011;63614;56.026;35.960;2022-11-21T16:38:24;23.02;;;11.32;;
75044;SDS011;63614;56.026;35.960;2022-11-21T16:40:52;26.15;;;12.60;;
75044;SDS011;63614;56.026;35.960;2022-11-21T16:43:26;19.40;;;9.82;;
75044;SDS011;63614;56.026;35.960;2022-11-21T16:45:53;20.60;;;10.90;;
75044;SDS011;63614;56.026;35.960;2022-11-21T16:48:21;25.77;;;11.63;;
75044;SDS011;63614;56.026;35.960;2022-11-21T16:50:48;22.70;;;11.73;;
75044;SDS011;63614;56.026;35.960;2022-11-21T16:53:15;22.92;;;10.73;;
75044;SDS011;63614;56.026;35.960;2022-11-21T16:55:41;18.75;;;8.75;;
75044;SDS011;63614;56.026;35.960;2022-11-21T16:58:07;19.45;;;10.15;;
75044;SDS011;63614;56.026;35.960;2022-11-21T17:00:33;20.77;;;10.43;;